Time;durP1;ratioP1;P1;durP2;ratioP2;P2;SDS_P1;SDS_P2;PMS_P1;PMS_P2;Temp;Humidity;BMP_temperature;BMP_pressure;BME280_temperature;BME280_humidity;BME280_pressure;Samples;Min_cycle;Max_cycle;Signal;HPM_P1;HPM_P2
2024/01/10 00:01:20;;;;;;;1.83;1.40;;;;;;;;;;4948039;28;93044;-64
2024/01/10 00:03:49;;;;;;;3.20;1.80;;;;;;;;;;4943040;28;93839;-64
2024/01/10 00:06:18;;;;;;;6.40;1.30;;;;;;;;;;4949517;28;92090;-64
2024/01/10 00:08:46;;;;;;;1.80;1.20;;;;;;;;;;4945556;28;91476;-64
2024/01/10 00:11:16;;;;;;;1.73;1.37;;;;;;;;;;4944195;28;94194;-64
2024/01/10 00:13:44;;;;;;;2.07;1.43;;;;;;;;;;4944811;28;93948;-64
2024/01/10 00:16:14;;;;;;;3.43;1.70;;;;;;;;;;4957210;28;93070;-64
2024/01/10 00:18:42;;;;;;;1.73;1.40;;;;;;;;;;4954708;28;92697;-64
2024/01/10 00:21:11;;;;;;;2.20;1.30;;;;;;;;;;4948142;28;94144;-63
2024/01/10 00:23:39;;;;;;;5.33;1.30;;;;;;;;;;4949855;28;93995;-64
2024/01/10 00:26:08;;;;;;;1.20;0.97;;;;;;;;;;4949266;28;92171;-64
2024/01/10 00:28:38;;;;;;;1.30;1.20;;;;;;;;;;4950654;28;92216;-64
2024/01/10 00:31:06;;;;;;;1.60;1.50;;;;;;;;;;4944738;28;94354;-63
2024/01/10 00:33:35;;;;;;;1.87;0.80;;;;;;;;;;4938606;28;94061;-64
2024/01/10 00:36:03;;;;;;;1.80;1.20;;;;;;;;;;4936124;28;92189;-63
2024/01/10 00:38:32;;;;;;;1.27;1.07;;;;;;;;;;4930766;28;93284;-63
2024/01/10 00:41:00;;;;;;;1.23;1.00;;;;;;;;;;4952237;28;95227;-63
2024/01/10 00:43:28;;;;;;;1.87;1.10;;;;;;;;;;4958702;28;94797;-63
2024/01/10 00:45:58;;;;;;;0.73;0.67;;;;;;;;;;4970192;28;93312;-64
2024/01/10 00:48:26;;;;;;;1.33;1.00;;;;;;;;;;4957380;28;92258;-63
2024/01/10 00:50:55;;;;;;;1.53;1.10;;;;;;;;;;4965927;28;97560;-64
2024/01/10 00:53:23;;;;;;;0.97;0.93;;;;;;;;;;4975120;28;92857;-63
2024/01/10 00:55:51;;;;;;;5.33;1.50;;;;;;;;;;4971458;28;92077;-64
2024/01/10 00:58:20;;;;;;;1.10;0.80;;;;;;;;;;4962903;28;91427;-64
2024/01/10 01:00:48;;;;;;;1.43;0.97;;;;;;;;;;4972091;28;94138;-64
2024/01/10 01:03:18;;;;;;;1.33;0.90;;;;;;;;;;4961564;28;93880;-63
2024/01/10 01:05:46;;;;;;;1.20;1.10;;;;;;;;;;4972640;28;93019;-63
2024/01/10 01:08:15;;;;;;;1.43;1.33;;;;;;;;;;4963272;28;92119;-63
2024/01/10 01:10:43;;;;;;;1.33;0.67;;;;;;;;;;4974199;28;94251;-63
2024/01/10 01:13:12;;;;;;;0.97;0.87;;;;;;;;;;4961632;28;93996;-63
2024/01/10 01:15:40;;;;;;;1.17;0.90;;;;;;;;;;4959077;28;92458;-64
2024/01/10 01:18:09;;;;;;;0.77;0.77;;;;;;;;;;4957888;28;92036;-63
2024/01/10 01:20:39;;;;;;;1.73;1.07;;;;;;;;;;4958076;28;94532;-63
2024/01/10 01:23:08;;;;;;;0.70;0.70;;;;;;;;;;4958658;28;93726;-63
2024/01/10 01:25:36;;;;;;;1.20;1.10;;;;;;;;;;4958414;28;91924;-63
2024/01/10 01:28:05;;;;;;;0.87;0.87;;;;;;;;;;4958768;28;91896;-63
2024/01/10 01:30:33;;;;;;;0.50;0.50;;;;;;;;;;4957621;28;95079;-63
2024/01/10 01:33:04;;;;;;;1.03;0.77;;;;;;;;;;4958262;28;97338;-63
2024/01/10 01:35:33;;;;;;;1.60;0.90;;;;;;;;;;4959021;28;92028;-63
2024/01/10 01:38:02;;;;;;;1.10;1.00;;;;;;;;;;4957486;28;92076;-63
2024/01/10 01:40:31;;;;;;;1.23;0.80;;;;;;;;;;4962112;28;94132;-63
2024/01/10 01:43:01;;;;;;;0.93;0.77;;;;;;;;;;4962591;28;93826;-63
2024/01/10 01:45:29;;;;;;;0.33;0.33;;;;;;;;;;4956541;28;92096;-63
2024/01/10 01:47:58;;;;;;;0.57;0.57;;;;;;;;;;4956592;28;92736;-63
2024/01/10 01:50:27;;;;;;;0.73;0.73;;;;;;;;;;4955848;28;94189;-63
2024/01/10 01:52:55;;;;;;;3.73;0.97;;;;;;;;;;4955885;28;93944;-63
2024/01/10 01:55:25;;;;;;;0.43;0.33;;;;;;;;;;4955658;28;93129;-63
2024/01/10 01:57:53;;;;;;;1.53;0.90;;;;;;;;;;4953853;28;92050;-63
2024/01/10 02:00:22;;;;;;;1.63;0.77;;;;;;;;;;4956899;28;94119;-63
2024/01/10 02:02:50;;;;;;;0.70;0.70;;;;;;;;;;4955996;28;93855;-63
2024/01/10 02:05:19;;;;;;;0.67;0.67;;;;;;;;;;4954134;28;92085;-64
2024/01/10 02:07:47;;;;;;;0.80;0.80;;;;;;;;;;4955849;28;92210;-63
2024/01/10 02:10:16;;;;;;;0.70;0.70;;;;;;;;;;4956446;28;94408;-63
2024/01/10 02:12:45;;;;;;;1.03;0.80;;;;;;;;;;4956455;28;93818;-63
2024/01/10 02:15:16;;;;;;;1.07;0.87;;;;;;;;;;4957128;28;93631;-63
2024/01/10 02:17:45;;;;;;;0.60;0.60;;;;;;;;;;4964772;28;92169;-63
2024/01/10 02:20:13;;;;;;;1.07;0.73;;;;;;;;;;4958515;28;94324;-63
2024/01/10 02:22:42;;;;;;;0.80;0.43;;;;;;;;;;4959356;28;94767;-63
2024/01/10 02:25:12;;;;;;;0.87;0.80;;;;;;;;;;4959055;28;92059;-63
2024/01/10 02:27:40;;;;;;;0.70;0.70;;;;;;;;;;4959168;28;91936;-63
2024/01/10 02:30:09;;;;;;;0.60;0.57;;;;;;;;;;4958962;28;94270;-63
2024/01/10 02:32:38;;;;;;;0.63;0.63;;;;;;;;;;4956876;28;94067;-63
2024/01/10 02:35:07;;;;;;;0.93;0.60;;;;;;;;;;4959017;28;93471;-64
2024/01/10 02:37:36;;;;;;;1.90;0.80;;;;;;;;;;4959987;28;93906;-63
2024/01/10 02:40:05;;;;;;;0.43;0.33;;;;;;;;;;4959055;28;94172;-63
2024/01/10 02:42:34;;;;;;;0.70;0.70;;;;;;;;;;4959354;28;93996;-63
2024/01/10 02:45:03;;;;;;;1.30;0.67;;;;;;;;;;4963856;28;93173;-63
2024/01/10 02:47:31;;;;;;;0.63;0.63;;;;;;;;;;4969480;28;92228;-63
2024/01/10 02:49:59;;;;;;;0.73;0.60;;;;;;;;;;4965286;28;94317;-63
2024/01/10 02:52:28;;;;;;;0.60;0.60;;;;;;;;;;4962021;28;93841;-63
2024/01/10 02:54:56;;;;;;;0.60;0.60;;;;;;;;;;4963426;28;92924;-64
2024/01/10 02:57:24;;;;;;;0.70;0.70;;;;;;;;;;4975300;28;92076;-63
2024/01/10 02:59:54;;;;;;;1.70;1.13;;;;;;;;;;4966290;28;94177;-63
2024/01/10 03:02:23;;;;;;;0.57;0.50;;;;;;;;;;4973684;28;93805;-63
2024/01/10 03:04:51;;;;;;;1.70;0.40;;;;;;;;;;4977345;28;91842;-63
2024/01/10 03:07:20;;;;;;;1.57;0.67;;;;;;;;;;4959598;28;91909;-63
2024/01/10 03:09:48;;;;;;;0.60;0.60;;;;;;;;;;4976111;28;95080;-63
2024/01/10 03:12:16;;;;;;;0.57;0.50;;;;;;;;;;4971517;28;94796;-64
2024/01/10 03:14:45;;;;;;;0.60;0.60;;;;;;;;;;4968194;28;92067;-63
2024/01/10 03:17:14;;;;;;;0.70;0.53;;;;;;;;;;4970013;28;92115;-63
2024/01/10 03:19:43;;;;;;;1.20;0.70;;;;;;;;;;4969324;28;94404;-63
2024/01/10 03:22:12;;;;;;;0.60;0.60;;;;;;;;;;4969344;28;93856;-63
2024/01/10 03:24:40;;;;;;;0.50;0.50;;;;;;;;;;4969106;28;92094;-63
2024/01/10 03:27:08;;;;;;;0.97;0.70;;;;;;;;;;4967411;28;91423;-63
2024/01/10 03:29:37;;;;;;;1.17;0.97;;;;;;;;;;4968648;28;94237;-63
2024/01/10 03:32:05;;;;;;;1.27;0.80;;;;;;;;;;4970262;28;93914;-63
2024/01/10 03:34:35;;;;;;;0.73;0.50;;;;;;;;;;4967897;28;92999;-63
2024/01/10 03:37:03;;;;;;;2.80;1.20;;;;;;;;;;4968010;28;91983;-64
2024/01/10 03:39:32;;;;;;;1.97;1.40;;;;;;;;;;4965660;28;94045;-64
2024/01/10 03:42:01;;;;;;;2.87;1.03;;;;;;;;;;4960060;28;93783;-64
2024/01/10 03:44:30;;;;;;;2.33;1.60;;;;;;;;;;4954970;28;92022;-64
2024/01/10 03:46:58;;;;;;;2.23;1.10;;;;;;;;;;4953142;28;92157;-63
2024/01/10 03:49:26;;;;;;;1.30;1.00;;;;;;;;;;4954672;28;94273;-63
2024/01/10 03:51:59;;;;;;;1.77;1.67;;;;;;;;;;4952651;28;93969;-63
2024/01/10 03:54:28;;;;;;;1.93;0.87;;;;;;;;;;4955553;28;92092;-63
2024/01/10 03:56:58;;;;;;;1.63;1.00;;;;;;;;;;4952878;28;92108;-63
2024/01/10 03:59:28;;;;;;;2.23;1.50;;;;;;;;;;4955108;28;95423;-63
2024/01/10 04:02:00;;;;;;;1.30;1.20;;;;;;;;;;4957577;28;93661;-63
2024/01/10 04:04:30;;;;;;;1.70;1.43;;;;;;;;;;4952905;28;92093;-63
2024/01/10 04:07:00;;;;;;;1.90;1.53;;;;;;;;;;4955553;28;92151;-63
2024/01/10 04:09:28;;;;;;;2.37;1.57;;;;;;;;;;4954109;28;93080;-63
2024/01/10 04:11:56;;;;;;;1.70;1.40;;;;;;;;;;4957493;28;93850;-63
2024/01/10 04:14:25;;;;;;;1.53;1.43;;;;;;;;;;4955940;28;92504;-63
2024/01/10 04:16:55;;;;;;;2.03;1.13;;;;;;;;;;4958243;28;91358;-64
2024/01/10 04:19:23;;;;;;;3.20;1.87;;;;;;;;;;4958197;28;93930;-63
2024/01/10 04:21:51;;;;;;;3.27;1.43;;;;;;;;;;4955374;28;93958;-63
2024/01/10 04:24:21;;;;;;;2.33;1.67;;;;;;;;;;4957184;28;93013;-63
2024/01/10 04:26:49;;;;;;;2.50;1.73;;;;;;;;;;4953709;28;92187;-63
2024/01/10 04:29:18;;;;;;;2.97;2.10;;;;;;;;;;4939335;28;94187;-63
2024/01/10 04:31:46;;;;;;;3.23;1.90;;;;;;;;;;4939328;28;93866;-63
2024/01/10 04:34:14;;;;;;;3.20;2.00;;;;;;;;;;4939625;28;92147;-63
2024/01/10 04:36:43;;;;;;;2.27;1.90;;;;;;;;;;4942829;28;92278;-63
2024/01/10 04:39:11;;;;;;;1.87;1.67;;;;;;;;;;4951670;28;94113;-63
2024/01/10 04:41:41;;;;;;;3.97;2.13;;;;;;;;;;4965327;28;96371;-63
2024/01/10 04:44:09;;;;;;;2.03;1.87;;;;;;;;;;4965215;28;92017;-63
2024/01/10 04:46:37;;;;;;;3.40;2.20;;;;;;;;;;4968573;28;92104;-63
2024/01/10 04:49:06;;;;;;;3.63;1.70;;;;;;;;;;4966606;28;94135;-63
2024/01/10 04:51:34;;;;;;;3.97;1.70;;;;;;;;;;4970254;28;94908;-63
2024/01/10 04:54:02;;;;;;;1.80;1.13;;;;;;;;;;4971042;28;92021;-63
2024/01/10 04:56:31;;;;;;;4.20;2.30;;;;;;;;;;4967114;28;92101;-63
2024/01/10 04:59:00;;;;;;;3.60;2.20;;;;;;;;;;4967560;28;94238;-63
2024/01/10 05:01:29;;;;;;;3.60;2.10;;;;;;;;;;4958699;28;94072;-63
2024/01/10 05:03:57;;;;;;;3.30;2.20;;;;;;;;;;4964032;28;92099;-63
2024/01/10 05:06:26;;;;;;;7.73;1.90;;;;;;;;;;4974441;28;91365;-63
2024/01/10 05:08:57;;;;;;;3.43;1.80;;;;;;;;;;4957817;28;94289;-63
2024/01/10 05:11:26;;;;;;;4.17;1.97;;;;;;;;;;4959891;28;93615;-63
2024/01/10 05:13:54;;;;;;;3.43;2.17;;;;;;;;;;4974078;28;93609;-63
2024/01/10 05:16:24;;;;;;;13.23;1.77;;;;;;;;;;4958539;28;92321;-63
2024/01/10 05:18:53;;;;;;;2.40;2.20;;;;;;;;;;4967822;28;95006;-63
2024/01/10 05:21:21;;;;;;;1.77;1.63;;;;;;;;;;4971021;28;93918;-64
2024/01/10 05:23:49;;;;;;;2.43;1.93;;;;;;;;;;4958721;28;92184;-64
2024/01/10 05:26:18;;;;;;;2.47;1.50;;;;;;;;;;4958266;28;92177;-63
2024/01/10 05:28:46;;;;;;;3.63;1.87;;;;;;;;;;4964181;28;94148;-64
2024/01/10 05:31:15;;;;;;;2.23;2.03;;;;;;;;;;4968203;28;93863;-65
2024/01/10 05:33:44;;;;;;;2.43;1.67;;;;;;;;;;4975562;28;92065;-64
2024/01/10 05:36:13;;;;;;;1.57;1.13;;;;;;;;;;4969253;28;91909;-64
2024/01/10 05:38:41;;;;;;;3.40;1.60;;;;;;;;;;4961732;28;95109;-64
2024/01/10 05:41:09;;;;;;;2.00;1.50;;;;;;;;;;4966937;28;94756;-64
2024/01/10 05:43:38;;;;;;;2.40;1.50;;;;;;;;;;4950097;28;92128;-64
2024/01/10 05:46:06;;;;;;;1.80;1.27;;;;;;;;;;4944171;28;92175;-64
2024/01/10 05:48:35;;;;;;;1.87;1.70;;;;;;;;;;4957618;28;94186;-64
2024/01/10 05:51:05;;;;;;;6.60;1.37;;;;;;;;;;4959802;28;94439;-64
2024/01/10 05:53:33;;;;;;;2.90;1.37;;;;;;;;;;4961600;28;92128;-64
2024/01/10 05:56:01;;;;;;;1.40;1.30;;;;;;;;;;4961464;28;91519;-64
2024/01/10 05:58:30;;;;;;;2.80;1.13;;;;;;;;;;4961136;28;94199;-64
2024/01/10 06:00:59;;;;;;;2.57;1.27;;;;;;;;;;4960938;28;93870;-64
2024/01/10 06:03:27;;;;;;;1.33;1.10;;;;;;;;;;4961457;28;92933;-64
2024/01/10 06:05:56;;;;;;;2.50;0.83;;;;;;;;;;4954115;28;92086;-64
2024/01/10 06:08:28;;;;;;;4.47;1.13;;;;;;;;;;4957286;28;94223;-64
2024/01/10 06:10:56;;;;;;;2.27;1.23;;;;;;;;;;4959656;28;93933;-64
2024/01/10 06:13:25;;;;;;;2.20;0.93;;;;;;;;;;4961251;28;91943;-64
2024/01/10 06:15:56;;;;;;;3.13;1.47;;;;;;;;;;4959857;28;92024;-64
2024/01/10 06:18:24;;;;;;;1.30;1.03;;;;;;;;;;4961256;28;94109;-64
2024/01/10 06:20:52;;;;;;;1.67;1.00;;;;;;;;;;4961204;28;93883;-64
2024/01/10 06:23:21;;;;;;;1.90;0.97;;;;;;;;;;4959436;28;92077;-64
2024/01/10 06:25:50;;;;;;;1.83;1.33;;;;;;;;;;4958323;28;92127;-64
2024/01/10 06:28:19;;;;;;;2.03;1.10;;;;;;;;;;4959383;28;93997;-65
2024/01/10 06:30:47;;;;;;;2.87;1.43;;;;;;;;;;4949739;28;93652;-64
2024/01/10 06:33:16;;;;;;;1.90;1.23;;;;;;;;;;4955759;28;92045;-64
2024/01/10 06:35:44;;;;;;;1.93;1.13;;;;;;;;;;4960061;28;92048;-64
2024/01/10 06:38:13;;;;;;;1.33;1.00;;;;;;;;;;4960400;28;94161;-64
2024/01/10 06:40:41;;;;;;;2.77;1.33;;;;;;;;;;4959991;28;93969;-64
2024/01/10 06:43:11;;;;;;;2.00;1.27;;;;;;;;;;4960143;28;91980;-64
2024/01/10 06:45:39;;;;;;;0.60;0.50;;;;;;;;;;4961230;28;91297;-64
2024/01/10 06:48:09;;;;;;;1.20;1.10;;;;;;;;;;4960230;28;94113;-64
2024/01/10 06:50:37;;;;;;;0.60;0.60;;;;;;;;;;4960157;28;94013;-64
2024/01/10 06:53:06;;;;;;;2.57;0.90;;;;;;;;;;4959871;28;92729;-64
2024/01/10 06:55:34;;;;;;;1.70;0.70;;;;;;;;;;4960414;28;92012;-64
2024/01/10 06:58:02;;;;;;;2.47;1.27;;;;;;;;;;4960448;28;96151;-64
2024/01/10 07:00:32;;;;;;;2.60;1.23;;;;;;;;;;4960136;28;93824;-64
2024/01/10 07:03:02;;;;;;;1.03;0.80;;;;;;;;;;4958886;28;92032;-64
2024/01/10 07:05:31;;;;;;;1.40;1.17;;;;;;;;;;4960684;28;91897;-64
2024/01/10 07:08:02;;;;;;;1.47;1.30;;;;;;;;;;4960422;28;94176;-64
2024/01/10 07:10:31;;;;;;;2.70;0.57;;;;;;;;;;4961202;28;93851;-64
2024/01/10 07:12:59;;;;;;;3.40;0.83;;;;;;;;;;4960934;28;92007;-64
2024/01/10 07:15:28;;;;;;;2.33;0.77;;;;;;;;;;4961073;28;92086;-64
2024/01/10 07:17:57;;;;;;;0.43;0.43;;;;;;;;;;4960111;28;94784;-64
2024/01/10 07:20:26;;;;;;;1.37;0.83;;;;;;;;;;4960924;28;94725;-64
2024/01/10 07:22:54;;;;;;;0.73;0.70;;;;;;;;;;4961456;28;91892;-64
2024/01/10 07:25:25;;;;;;;1.03;0.90;;;;;;;;;;4960111;28;92352;-64
2024/01/10 07:27:53;;;;;;;1.70;1.10;;;;;;;;;;4960652;28;93043;-64
2024/01/10 07:30:21;;;;;;;0.80;0.80;;;;;;;;;;4960243;28;93815;-64
2024/01/10 07:32:50;;;;;;;2.70;1.53;;;;;;;;;;4960470;28;91889;-64
2024/01/10 07:35:20;;;;;;;1.00;0.67;;;;;;;;;;4960351;28;91337;-64
2024/01/10 07:37:49;;;;;;;1.77;0.70;;;;;;;;;;4959293;28;94319;-64
2024/01/10 07:40:17;;;;;;;0.57;0.57;;;;;;;;;;4958485;28;93849;-64
2024/01/10 07:42:46;;;;;;;1.97;0.87;;;;;;;;;;4959111;28;94203;-64
2024/01/10 07:45:14;;;;;;;1.00;0.83;;;;;;;;;;4959754;28;93322;-64
2024/01/10 07:47:42;;;;;;;0.47;0.47;;;;;;;;;;4959296;28;94153;-64
2024/01/10 07:50:12;;;;;;;0.93;0.77;;;;;;;;;;4959435;28;93899;-64
2024/01/10 07:52:42;;;;;;;1.13;0.97;;;;;;;;;;4959611;28;92055;-64
2024/01/10 07:55:11;;;;;;;1.00;1.00;;;;;;;;;;4959146;28;92014;-64
2024/01/10 07:57:39;;;;;;;0.70;0.60;;;;;;;;;;4959328;28;93510;-64
2024/01/10 08:00:10;;;;;;;1.70;0.80;;;;;;;;;;4959833;28;93842;-64
2024/01/10 08:02:38;;;;;;;0.97;0.70;;;;;;;;;;4959127;28;92174;-64
2024/01/10 08:05:08;;;;;;;3.13;0.70;;;;;;;;;;4959383;28;92220;-64
2024/01/10 08:07:36;;;;;;;0.70;0.70;;;;;;;;;;4958713;28;95114;-64
2024/01/10 08:10:07;;;;;;;0.83;0.50;;;;;;;;;;4959131;28;94781;-64
2024/01/10 08:12:36;;;;;;;0.67;0.67;;;;;;;;;;4959480;28;91864;-64
2024/01/10 08:15:04;;;;;;;1.57;0.90;;;;;;;;;;4958114;28;92067;-64
2024/01/10 08:17:33;;;;;;;0.97;0.87;;;;;;;;;;4958833;28;94117;-64
2024/01/10 08:20:03;;;;;;;1.17;1.03;;;;;;;;;;4958351;28;94021;-64
2024/01/10 08:22:32;;;;;;;1.00;0.93;;;;;;;;;;4959417;28;92505;-64
2024/01/10 08:25:00;;;;;;;0.70;0.70;;;;;;;;;;4959640;28;91408;-64
2024/01/10 08:27:30;;;;;;;0.87;0.87;;;;;;;;;;4958704;28;94251;-64
2024/01/10 08:29:58;;;;;;;1.63;0.70;;;;;;;;;;4958601;28;93813;-65
2024/01/10 08:32:27;;;;;;;0.60;0.60;;;;;;;;;;4957952;28;92983;-64
2024/01/10 08:34:55;;;;;;;0.83;0.67;;;;;;;;;;4958781;28;92249;-64
2024/01/10 08:37:23;;;;;;;0.70;0.70;;;;;;;;;;4958269;28;94224;-64
2024/01/10 08:39:52;;;;;;;0.70;0.70;;;;;;;;;;4958273;28;93835;-64
2024/01/10 08:42:20;;;;;;;0.70;0.70;;;;;;;;;;4958809;28;92005;-64
2024/01/10 08:44:59;;;;;;;2.30;0.80;;;;;;;;;;5103325;27;87260;-65
2024/01/10 08:47:30;;;;;;;0.87;0.77;;;;;;;;;;5100443;27;87437;-65
2024/01/10 08:49:58;;;;;;;1.40;0.60;;;;;;;;;;5100552;27;87394;-65
2024/01/10 08:52:26;;;;;;;0.50;0.50;;;;;;;;;;5099661;27;89308;-65
2024/01/10 08:54:56;;;;;;;1.13;1.00;;;;;;;;;;5100464;27;87788;-64
2024/01/10 08:57:26;;;;;;;2.43;0.90;;;;;;;;;;5100322;27;87535;-64
2024/01/10 08:59:54;;;;;;;0.90;0.70;;;;;;;;;;5100624;27;87491;-65
2024/01/10 09:02:24;;;;;;;1.13;0.77;;;;;;;;;;5099967;27;89795;-65
2024/01/10 09:04:52;;;;;;;0.90;0.70;;;;;;;;;;5099705;27;89181;-65
2024/01/10 09:07:21;;;;;;;0.90;0.90;;;;;;;;;;5099422;27;87475;-65
2024/01/10 09:09:49;;;;;;;0.90;0.90;;;;;;;;;;5100090;27;87622;-65
2024/01/10 09:12:18;;;;;;;1.23;0.83;;;;;;;;;;5099433;27;89620;-65
2024/01/10 09:14:46;;;;;;;0.97;0.70;;;;;;;;;;5099431;27;88885;-64
2024/01/10 09:17:15;;;;;;;1.03;0.73;;;;;;;;;;5093789;27;87534;-65
2024/01/10 09:19:44;;;;;;;1.63;0.97;;;;;;;;;;5093386;27;87457;-65
2024/01/10 09:22:13;;;;;;;1.20;1.10;;;;;;;;;;5110994;27;89627;-65
2024/01/10 09:24:41;;;;;;;0.77;0.77;;;;;;;;;;5078436;27;87989;-65
2024/01/10 09:27:11;;;;;;;1.40;0.70;;;;;;;;;;5081861;27;87419;-65
2024/01/10 09:29:39;;;;;;;1.03;0.70;;;;;;;;;;5098005;27;87657;-65
2024/01/10 09:32:08;;;;;;;3.53;0.83;;;;;;;;;;5093870;27;88611;-65
2024/01/10 09:34:36;;;;;;;0.90;0.87;;;;;;;;;;5083464;27;89120;-65
2024/01/10 09:37:06;;;;;;;0.90;0.80;;;;;;;;;;5097986;27;87391;-65
2024/01/10 09:39:34;;;;;;;1.23;0.70;;;;;;;;;;5095585;27;87619;-65
2024/01/10 09:42:03;;;;;;;1.80;0.63;;;;;;;;;;5089141;27;90304;-65
2024/01/10 09:44:33;;;;;;;0.77;0.70;;;;;;;;;;5081334;27;89024;-64
2024/01/10 09:47:02;;;;;;;0.77;0.53;;;;;;;;;;5088510;27;87269;-64
2024/01/10 09:49:30;;;;;;;1.43;1.13;;;;;;;;;;5095715;27;87536;-65
2024/01/10 09:52:01;;;;;;;0.90;0.40;;;;;;;;;;5082320;27;89735;-65
2024/01/10 09:54:32;;;;;;;1.67;1.07;;;;;;;;;;5076917;27;88958;-65
2024/01/10 09:57:00;;;;;;;1.00;0.90;;;;;;;;;;5073396;27;87234;-65
2024/01/10 09:59:28;;;;;;;2.30;1.03;;;;;;;;;;5084886;27;87614;-65
2024/01/10 10:01:58;;;;;;;1.73;0.70;;;;;;;;;;5078685;27;89647;-65
2024/01/10 10:04:26;;;;;;;0.63;0.63;;;;;;;;;;5084718;27;88959;-64
2024/01/10 10:07:00;;;;;;;1.13;0.70;;;;;;;;;;5084045;27;87425;-65
2024/01/10 10:09:30;;;;;;;0.90;0.77;;;;;;;;;;5085128;27;87595;-65
2024/01/10 10:12:00;;;;;;;0.67;0.57;;;;;;;;;;5083400;27;89705;-65
2024/01/10 10:14:30;;;;;;;0.87;0.87;;;;;;;;;;5066622;27;89020;-65
2024/01/10 10:16:58;;;;;;;1.20;0.53;;;;;;;;;;5064921;27;87297;-65
2024/01/10 10:19:26;;;;;;;1.40;0.73;;;;;;;;;;5064144;27;87663;-64
2024/01/10 10:22:09;;;;;;;0.70;0.70;;;;;;;;;;5063873;27;88472;-65
2024/01/10 10:24:37;;;;;;;0.83;0.60;;;;;;;;;;5063515;27;88934;-64
2024/01/10 10:27:10;;;;;;;1.40;0.53;;;;;;;;;;5064938;27;87436;-65
2024/01/10 10:29:39;;;;;;;2.60;1.10;;;;;;;;;;5068921;27;87747;-65
2024/01/10 10:32:08;;;;;;;0.40;0.40;;;;;;;;;;5084280;27;89546;-65
2024/01/10 10:34:37;;;;;;;2.10;0.90;;;;;;;;;;5075221;27;89299;-65
2024/01/10 10:37:06;;;;;;;0.83;0.70;;;;;;;;;;5064675;27;87766;-64
2024/01/10 10:39:34;;;;;;;1.07;0.60;;;;;;;;;;5064358;27;87221;-65
2024/01/10 10:42:03;;;;;;;1.87;1.23;;;;;;;;;;5079026;27;89562;-64
2024/01/10 10:44:32;;;;;;;1.23;0.80;;;;;;;;;;5084452;27;88997;-65
2024/01/10 10:47:03;;;;;;;0.87;0.70;;;;;;;;;;5085143;27;87365;-65
2024/01/10 10:49:41;;;;;;;1.50;0.60;;;;;;;;;;5084774;27;87756;-65
2024/01/10 10:52:10;;;;;;;1.17;0.60;;;;;;;;;;5084306;27;89786;-66
2024/01/10 10:54:38;;;;;;;0.83;0.70;;;;;;;;;;5084356;27;87865;-65
2024/01/10 10:57:06;;;;;;;0.97;0.70;;;;;;;;;;5084705;27;87262;-66
2024/01/10 10:59:36;;;;;;;0.53;0.53;;;;;;;;;;5084456;27;87696;-65
2024/01/10 11:02:05;;;;;;;2.67;1.10;;;;;;;;;;5083820;27;88186;-65
2024/01/10 11:04:33;;;;;;;1.50;0.80;;;;;;;;;;5083434;27;88413;-65
2024/01/10 11:07:02;;;;;;;1.67;1.03;;;;;;;;;;5083110;27;88158;-65
2024/01/10 11:09:31;;;;;;;1.20;0.80;;;;;;;;;;5084429;27;88060;-65
2024/01/10 11:12:04;;;;;;;1.50;0.93;;;;;;;;;;5078763;27;89799;-66
2024/01/10 11:14:36;;;;;;;0.47;0.47;;;;;;;;;;5083898;27;89008;-66
2024/01/10 11:17:17;;;;;;;1.17;0.90;;;;;;;;;;5084494;27;87531;-66
2024/01/10 11:20:01;;;;;;;30.50;10.73;;;;;;;;;;5084744;27;87514;-65
2024/01/10 11:22:34;;;;;;;927.83;296.03;;;;;;;;;;5074411;27;88401;-68
2024/01/10 11:25:03;;;;;;;684.20;192.50;;;;;;;;;;5081939;27;87729;-68
2024/01/10 11:27:31;;;;;;;647.00;186.57;;;;;;;;;;5075923;27;87495;-67
2024/01/10 11:29:59;;;;;;;363.00;92.00;;;;;;;;;;5061337;27;87624;-67
2024/01/10 11:32:29;;;;;;;245.07;62.93;;;;;;;;;;5062024;27;89561;-67
2024/01/10 11:34:59;;;;;;;188.30;49.90;;;;;;;;;;5062194;27;89108;-67
2024/01/10 11:37:29;;;;;;;142.03;39.93;;;;;;;;;;5062217;27;87296;-67
2024/01/10 11:39:58;;;;;;;146.47;38.83;;;;;;;;;;5062017;27;87670;-66
2024/01/10 11:42:27;;;;;;;128.03;33.40;;;;;;;;;;5061568;27;89598;-66
2024/01/10 11:44:55;;;;;;;105.27;31.83;;;;;;;;;;5061451;27;88867;-65
2024/01/10 11:47:23;;;;;;;103.63;28.23;;;;;;;;;;5064480;27;87401;-66
2024/01/10 11:49:57;;;;;;;93.77;25.67;;;;;;;;;;5062241;27;87398;-67
2024/01/10 11:52:27;;;;;;;91.93;25.07;;;;;;;;;;5060854;27;88565;-65
2024/01/10 11:54:56;;;;;;;80.93;23.63;;;;;;;;;;5061531;27;89051;-65
2024/01/10 11:57:24;;;;;;;85.77;22.50;;;;;;;;;;5061695;27;87305;-65
2024/01/10 11:59:53;;;;;;;83.70;21.93;;;;;;;;;;5061600;27;87435;-65
2024/01/10 12:02:22;;;;;;;71.27;20.17;;;;;;;;;;5060866;27;89802;-65
2024/01/10 12:04:50;;;;;;;61.87;18.50;;;;;;;;;;5080057;27;89052;-65
2024/01/10 12:07:21;;;;;;;65.33;18.83;;;;;;;;;;5081753;27;87368;-65
2024/01/10 12:09:49;;;;;;;51.43;14.30;;;;;;;;;;5082559;27;87305;-65
2024/01/10 12:12:18;;;;;;;47.87;14.47;;;;;;;;;;5081631;27;89730;-66
2024/01/10 12:14:47;;;;;;;44.83;12.90;;;;;;;;;;5081578;27;88677;-66
2024/01/10 12:17:16;;;;;;;50.63;13.70;;;;;;;;;;5081173;27;87356;-66
2024/01/10 12:19:44;;;;;;;44.77;12.63;;;;;;;;;;5079813;27;87403;-65
2024/01/10 12:22:15;;;;;;;36.03;8.70;;;;;;;;;;5063315;27;88601;-65
2024/01/10 12:24:48;;;;;;;29.20;9.23;;;;;;;;;;5061874;27;89034;-65
2024/01/10 12:27:18;;;;;;;23.07;8.47;;;;;;;;;;5062488;27;87462;-66
2024/01/10 12:29:49;;;;;;;16.63;6.17;;;;;;;;;;5067864;27;88184;-65
2024/01/10 12:32:19;;;;;;;25.87;6.77;;;;;;;;;;5072223;27;89508;-65
2024/01/10 12:34:48;;;;;;;21.80;6.70;;;;;;;;;;5081611;27;89146;-65
2024/01/10 12:37:16;;;;;;;20.53;6.43;;;;;;;;;;5080004;27;87476;-65
2024/01/10 12:39:46;;;;;;;13.93;5.77;;;;;;;;;;5066648;27;87614;-65
2024/01/10 12:42:15;;;;;;;23.50;7.07;;;;;;;;;;5082973;27;89943;-65
2024/01/10 12:44:46;;;;;;;13.57;5.60;;;;;;;;;;5079775;27;89041;-65
2024/01/10 12:47:20;;;;;;;15.43;4.97;;;;;;;;;;5083129;27;87373;-65
2024/01/10 12:49:50;;;;;;;15.10;4.37;;;;;;;;;;5082128;27;87518;-66
2024/01/10 12:52:21;;;;;;;17.57;4.73;;;;;;;;;;5082302;27;89564;-66
2024/01/10 12:54:52;;;;;;;19.13;6.07;;;;;;;;;;5081964;27;89009;-66
2024/01/10 12:57:23;;;;;;;9.23;3.33;;;;;;;;;;5076336;27;87568;-66
2024/01/10 12:59:52;;;;;;;9.87;3.37;;;;;;;;;;5082225;27;87494;-66
2024/01/10 13:02:20;;;;;;;10.20;3.57;;;;;;;;;;5073500;27;89342;-65
2024/01/10 13:04:49;;;;;;;9.10;2.93;;;;;;;;;;5072909;27;89010;-65
2024/01/10 13:07:17;;;;;;;11.77;3.40;;;;;;;;;;5082170;27;87550;-65
2024/01/10 13:09:46;;;;;;;6.53;3.07;;;;;;;;;;5082554;27;87693;-65
2024/01/10 13:12:15;;;;;;;8.93;2.43;;;;;;;;;;5081317;27;89673;-65
2024/01/10 13:14:46;;;;;;;6.77;2.50;;;;;;;;;;5075184;27;89463;-65
2024/01/10 13:17:14;;;;;;;9.77;2.73;;;;;;;;;;5081905;27;87331;-65
2024/01/10 13:19:45;;;;;;;9.07;2.80;;;;;;;;;;5082208;27;87646;-65
2024/01/10 13:22:16;;;;;;;7.67;2.40;;;;;;;;;;5061251;27;89824;-65
2024/01/10 13:24:44;;;;;;;2.30;1.33;;;;;;;;;;5070087;27;88971;-66
2024/01/10 13:27:13;;;;;;;4.30;2.13;;;;;;;;;;5081686;27;87440;-65
2024/01/10 13:29:46;;;;;;;5.60;2.43;;;;;;;;;;5075173;27;87611;-65
2024/01/10 13:32:15;;;;;;;4.33;1.83;;;;;;;;;;5064656;27;88533;-66
2024/01/10 13:34:44;;;;;;;3.93;1.47;;;;;;;;;;5064985;27;89015;-65
2024/01/10 13:37:14;;;;;;;2.80;1.10;;;;;;;;;;5085585;27;87175;-65
2024/01/10 13:39:42;;;;;;;4.83;1.70;;;;;;;;;;5085073;27;87583;-65
2024/01/10 13:42:11;;;;;;;5.17;1.53;;;;;;;;;;5079187;27;89568;-65
2024/01/10 13:44:39;;;;;;;3.20;1.87;;;;;;;;;;5080139;27;89547;-65
2024/01/10 13:47:09;;;;;;;4.67;1.40;;;;;;;;;;5079461;27;87542;-65
2024/01/10 13:49:38;;;;;;;2.83;1.50;;;;;;;;;;5083473;27;87582;-65
2024/01/10 13:52:06;;;;;;;2.63;1.97;;;;;;;;;;5077844;27;89684;-65
2024/01/10 13:54:36;;;;;;;3.13;2.13;;;;;;;;;;5084394;27;90742;-65
2024/01/10 13:57:06;;;;;;;2.40;1.10;;;;;;;;;;5084846;27;87398;-65
2024/01/10 13:59:34;;;;;;;3.10;1.30;;;;;;;;;;5085417;27;87690;-65
2024/01/10 14:02:03;;;;;;;3.40;1.00;;;;;;;;;;5082340;27;89718;-65
2024/01/10 14:04:33;;;;;;;4.10;1.30;;;;;;;;;;5071652;27;88005;-65
2024/01/10 14:07:03;;;;;;;2.50;1.17;;;;;;;;;;5074272;27;88769;-65
2024/01/10 14:09:32;;;;;;;3.47;1.13;;;;;;;;;;5085460;27;87353;-65
2024/01/10 14:12:00;;;;;;;2.70;1.23;;;;;;;;;;5084643;27;89623;-66
2024/01/10 14:14:29;;;;;;;3.07;1.27;;;;;;;;;;5084881;27;87914;-64
2024/01/10 14:16:57;;;;;;;4.07;1.70;;;;;;;;;;5085244;27;87258;-65
2024/01/10 14:19:26;;;;;;;2.57;1.63;;;;;;;;;;5084326;27;87365;-65
2024/01/10 14:21:55;;;;;;;2.30;1.23;;;;;;;;;;5083003;27;89589;-65
2024/01/10 14:24:24;;;;;;;1.80;1.40;;;;;;;;;;5081897;27;87799;-65
2024/01/10 14:26:52;;;;;;;5.67;1.97;;;;;;;;;;5084476;27;87392;-65
2024/01/10 14:29:22;;;;;;;5.53;2.83;;;;;;;;;;5074148;27;87618;-65
2024/01/10 14:31:53;;;;;;;4.87;2.27;;;;;;;;;;5083791;27;89780;-65
2024/01/10 14:34:41;;;;;;;2.83;2.10;;;;;;;;;;5084158;27;91192;-65
2024/01/10 14:37:11;;;;;;;5.23;2.17;;;;;;;;;;5082671;27;87529;-65
2024/01/10 14:39:40;;;;;;;2.57;1.83;;;;;;;;;;5063810;27;87637;-65
2024/01/10 14:42:08;;;;;;;3.43;2.30;;;;;;;;;;5063572;27;89659;-65
2024/01/10 14:44:37;;;;;;;4.57;2.50;;;;;;;;;;5062851;27;88753;-65
2024/01/10 14:47:06;;;;;;;6.27;2.37;;;;;;;;;;5069259;27;87562;-65
2024/01/10 14:49:39;;;;;;;5.93;1.73;;;;;;;;;;5084754;27;87171;-65
2024/01/10 14:52:08;;;;;;;5.37;2.40;;;;;;;;;;5083852;27;89696;-65